Hansen Road, Wisconsin
Current Conditions -  °F | °C
As of 2:53 AM on Monday 20 Oct 2014 (Local Time) from KGRB Reporting Station
Clear Clear  
Wind Chill: 45°   Ceiling: Unl
Heat Index: 45°   Visibility: 10mi
Dew Point: 42°   Wind: 3mph
Humidity: 90%   Direction: 240°WSW
Pressure: 29.75"   Gusts: NA
Location:  44.48°N, 88.0192°W
Report Text: KGRB 200753Z AUTO 24003KT 10SM CLR 07/06 A2975 RMK AO2 SLP077 T00720056
Loading
Personal Weather Stations






























Interactive Weather Map
Tropical Storm Tracking
New forecast layout! Learn more

10-Day Weather Forecast

Advertisements
Track Severe Weather on mobile